Terminal Aerodrome Forecast
Issued by NWS Cleveland, OH

Home | Current Version | Previous Version | Text Only | Print | Product List | Glossary On
Versions: 1 2 3 4 5 6 7 8 9 10 11 12 13
000
FTUS41 KCLE 011609 AAA
TAFYNG
TAF AMD
KYNG 011609Z 0116/0212 27006KT P6SM BKN080
     FM012000 28010G16KT P6SM SCT060
     FM020000 23006KT P6SM SCT060=

USA.gov is the U.S. government's official web portal to all federal, state and local government web resources and services.